sensor_id;sensor_type;location;lat;lon;timestamp;pressure;altitude;pressure_sealevel;temperature;humidity
33404;BME280;19751;40.274;18.268;2024-02-26T00:01:23;100218.91;;;14.06;100.00
33404;BME280;19751;40.274;18.268;2024-02-26T00:03:49;100213.47;;;14.06;100.00
33404;BME280;19751;40.274;18.268;2024-02-26T00:06:15;100211.25;;;14.03;100.00
33404;BME280;19751;40.274;18.268;2024-02-26T00:08:40;100215.84;;;14.02;100.00
33404;BME280;19751;40.274;18.268;2024-02-26T00:11:06;100212.31;;;14.02;100.00
33404;BME280;19751;40.274;18.268;2024-02-26T00:13:31;100209.59;;;14.02;100.00
33404;BME280;19751;40.274;18.268;2024-02-26T00:15:57;100211.47;;;14.01;100.00
33404;BME280;19751;40.274;18.268;2024-02-26T00:18:22;100217.94;;;14.00;100.00
33404;BME280;19751;40.274;18.268;2024-02-26T00:20:48;100220.88;;;13.99;100.00
33404;BME280;19751;40.274;18.268;2024-02-26T00:23:15;100219.00;;;13.99;100.00
33404;BME280;19751;40.274;18.268;2024-02-26T00:25:40;100219.66;;;13.95;100.00
33404;BME280;19751;40.274;18.268;2024-02-26T00:28:08;100225.28;;;13.93;100.00
33404;BME280;19751;40.274;18.268;2024-02-26T00:30:33;100217.41;;;13.91;100.00
33404;BME280;19751;40.274;18.268;2024-02-26T00:32:59;100223.44;;;13.93;100.00
33404;BME280;19751;40.274;18.268;2024-02-26T00:35:24;100226.72;;;13.96;100.00
33404;BME280;19751;40.274;18.268;2024-02-26T00:37:50;100229.44;;;13.96;100.00
33404;BME280;19751;40.274;18.268;2024-02-26T00:40:15;100230.50;;;13.95;100.00
33404;BME280;19751;40.274;18.268;2024-02-26T00:42:41;100225.28;;;13.93;100.00
33404;BME280;19751;40.274;18.268;2024-02-26T00:45:14;100220.56;;;13.88;100.00
33404;BME280;19751;40.274;18.268;2024-02-26T00:47:39;100221.38;;;13.89;100.00
33404;BME280;19751;40.274;18.268;2024-02-26T00:50:07;100223.06;;;13.90;100.00
33404;BME280;19751;40.274;18.268;2024-02-26T00:52:34;100218.22;;;13.92;100.00
33404;BME280;19751;40.274;18.268;2024-02-26T00:54:59;100206.13;;;13.95;100.00
33404;BME280;19751;40.274;18.268;2024-02-26T00:57:25;100202.59;;;13.94;100.00
33404;BME280;19751;40.274;18.268;2024-02-26T00:59:50;100212.38;;;13.95;100.00
33404;BME280;19751;40.274;18.268;2024-02-26T01:02:16;100212.59;;;13.93;100.00
33404;BME280;19751;40.274;18.268;2024-02-26T01:04:41;100214.69;;;13.91;100.00
33404;BME280;19751;40.274;18.268;2024-02-26T01:07:07;100213.03;;;13.90;100.00
33404;BME280;19751;40.274;18.268;2024-02-26T01:09:32;100206.88;;;13.83;100.00
33404;BME280;19751;40.274;18.268;2024-02-26T01:11:58;100209.69;;;13.70;100.00
33404;BME280;19751;40.274;18.268;2024-02-26T01:14:24;100206.34;;;13.50;100.00
33404;BME280;19751;40.274;18.268;2024-02-26T01:16:49;100210.66;;;13.32;100.00
33404;BME280;19751;40.274;18.268;2024-02-26T01:19:15;100217.63;;;13.15;100.00
33404;BME280;19751;40.274;18.268;2024-02-26T01:21:40;100207.50;;;13.04;100.00
33404;BME280;19751;40.274;18.268;2024-02-26T01:24:06;100208.16;;;12.99;100.00
33404;BME280;19751;40.274;18.268;2024-02-26T01:26:32;100204.81;;;13.04;100.00
33404;BME280;19751;40.274;18.268;2024-02-26T01:28:57;100203.09;;;13.09;100.00
33404;BME280;19751;40.274;18.268;2024-02-26T01:31:23;100194.94;;;13.16;100.00
33404;BME280;19751;40.274;18.268;2024-02-26T01:33:49;100198.25;;;13.18;100.00
33404;BME280;19751;40.274;18.268;2024-02-26T01:36:15;100192.63;;;13.19;100.00
33404;BME280;19751;40.274;18.268;2024-02-26T01:38:41;100189.28;;;13.24;100.00
33404;BME280;19751;40.274;18.268;2024-02-26T01:41:06;100182.00;;;13.25;100.00
33404;BME280;19751;40.274;18.268;2024-02-26T01:43:32;100185.94;;;13.29;100.00
33404;BME280;19751;40.274;18.268;2024-02-26T01:45:58;100182.59;;;13.27;100.00
33404;BME280;19751;40.274;18.268;2024-02-26T01:48:23;100170.75;;;13.28;100.00
33404;BME280;19751;40.274;18.268;2024-02-26T01:50:49;100171.56;;;13.28;100.00
33404;BME280;19751;40.274;18.268;2024-02-26T01:53:16;100168.25;;;13.26;100.00
33404;BME280;19751;40.274;18.268;2024-02-26T01:55:42;100177.81;;;13.29;100.00
33404;BME280;19751;40.274;18.268;2024-02-26T01:58:08;100180.28;;;13.30;100.00
33404;BME280;19751;40.274;18.268;2024-02-26T02:00:34;100181.09;;;13.31;100.00
33404;BME280;19751;40.274;18.268;2024-02-26T02:03:01;100179.25;;;13.31;100.00
33404;BME280;19751;40.274;18.268;2024-02-26T02:05:28;100169.47;;;13.30;100.00
33404;BME280;19751;40.274;18.268;2024-02-26T02:07:54;100166.16;;;13.28;100.00
33404;BME280;19751;40.274;18.268;2024-02-26T02:10:20;100173.66;;;13.26;100.00
33404;BME280;19751;40.274;18.268;2024-02-26T02:12:51;100166.00;;;13.23;100.00
33404;BME280;19751;40.274;18.268;2024-02-26T02:15:16;100171.19;;;13.25;100.00
33404;BME280;19751;40.274;18.268;2024-02-26T02:17:42;100178.25;;;13.26;100.00
33404;BME280;19751;40.274;18.268;2024-02-26T02:20:09;100177.41;;;13.25;100.00
33404;BME280;19751;40.274;18.268;2024-02-26T02:22:35;100179.31;;;13.25;100.00
33404;BME280;19751;40.274;18.268;2024-02-26T02:25:00;100175.53;;;13.26;100.00
33404;BME280;19751;40.274;18.268;2024-02-26T02:27:27;100175.78;;;13.24;100.00
33404;BME280;19751;40.274;18.268;2024-02-26T02:29:53;100177.41;;;13.25;100.00
33404;BME280;19751;40.274;18.268;2024-02-26T02:32:20;100174.47;;;13.27;100.00
33404;BME280;19751;40.274;18.268;2024-02-26T02:34:46;100185.09;;;13.28;100.00
33404;BME280;19751;40.274;18.268;2024-02-26T02:37:12;100188.63;;;13.29;100.00
33404;BME280;19751;40.274;18.268;2024-02-26T02:39:37;100194.44;;;13.32;100.00
33404;BME280;19751;40.274;18.268;2024-02-26T02:42:03;100202.75;;;13.31;100.00
33404;BME280;19751;40.274;18.268;2024-02-26T02:44:29;100207.34;;;13.30;100.00
33404;BME280;19751;40.274;18.268;2024-02-26T02:46:54;100205.69;;;13.29;100.00
33404;BME280;19751;40.274;18.268;2024-02-26T02:49:20;100199.22;;;13.30;100.00
33404;BME280;19751;40.274;18.268;2024-02-26T02:51:45;100205.03;;;13.34;100.00
33404;BME280;19751;40.274;18.268;2024-02-26T02:54:11;100195.84;;;13.35;100.00
33404;BME280;19751;40.274;18.268;2024-02-26T02:56:36;100193.38;;;13.33;100.00
33404;BME280;19751;40.274;18.268;2024-02-26T02:59:02;100183.19;;;13.35;100.00
33404;BME280;19751;40.274;18.268;2024-02-26T03:01:27;100188.13;;;13.38;100.00
33404;BME280;19751;40.274;18.268;2024-02-26T03:03:53;100194.34;;;13.39;100.00
33404;BME280;19751;40.274;18.268;2024-02-26T03:06:18;100189.63;;;13.34;100.00
33404;BME280;19751;40.274;18.268;2024-02-26T03:08:46;100192.13;;;13.36;100.00
33404;BME280;19751;40.274;18.268;2024-02-26T03:11:14;100190.25;;;13.36;100.00
33404;BME280;19751;40.274;18.268;2024-02-26T03:13:41;100190.81;;;13.38;100.00
33404;BME280;19751;40.274;18.268;2024-02-26T03:16:06;100197.88;;;13.39;100.00
33404;BME280;19751;40.274;18.268;2024-02-26T03:18:32;100194.97;;;13.41;100.00
33404;BME280;19751;40.274;18.268;2024-02-26T03:20:58;100201.22;;;13.41;100.00
33404;BME280;19751;40.274;18.268;2024-02-26T03:23:23;100203.91;;;13.41;100.00
33404;BME280;19751;40.274;18.268;2024-02-26T03:25:48;100199.34;;;13.42;100.00
33404;BME280;19751;40.274;18.268;2024-02-26T03:28:14;100199.97;;;13.44;100.00
33404;BME280;19751;40.274;18.268;2024-02-26T03:30:39;100203.91;;;13.41;100.00
33404;BME280;19751;40.274;18.268;2024-02-26T03:33:05;100199.56;;;13.40;100.00
33404;BME280;19751;40.274;18.268;2024-02-26T03:35:30;100201.81;;;13.43;100.00
33404;BME280;19751;40.274;18.268;2024-02-26T03:37:56;100204.31;;;13.45;100.00
33404;BME280;19751;40.274;18.268;2024-02-26T03:40:21;100191.59;;;13.46;100.00
33404;BME280;19751;40.274;18.268;2024-02-26T03:42:47;100190.78;;;13.45;100.00
33404;BME280;19751;40.274;18.268;2024-02-26T03:45:12;100196.63;;;13.42;100.00
33404;BME280;19751;40.274;18.268;2024-02-26T03:47:38;100190.81;;;13.38;100.00
33404;BME280;19751;40.274;18.268;2024-02-26T03:50:06;100195.81;;;13.41;100.00
33404;BME280;19751;40.274;18.268;2024-02-26T03:52:32;100190.16;;;13.43;100.00
33404;BME280;19751;40.274;18.268;2024-02-26T03:54:58;100182.88;;;13.43;100.00
33404;BME280;19751;40.274;18.268;2024-02-26T03:57:23;100201.44;;;13.40;100.00
33404;BME280;19751;40.274;18.268;2024-02-26T03:59:49;100188.78;;;13.34;100.00
33404;BME280;19751;40.274;18.268;2024-02-26T04:02:14;100192.59;;;13.26;100.00
33404;BME280;19751;40.274;18.268;2024-02-26T04:04:39;100189.88;;;13.26;100.00
33404;BME280;19751;40.274;18.268;2024-02-26T04:07:05;100192.00;;;13.24;100.00
33404;BME280;19751;40.274;18.268;2024-02-26T04:09:31;100192.41;;;13.21;100.00
33404;BME280;19751;40.274;18.268;2024-02-26T04:11:57;100194.50;;;13.19;100.00
33404;BME280;19751;40.274;18.268;2024-02-26T04:14:22;100192.00;;;13.17;100.00
33404;BME280;19751;40.274;18.268;2024-02-26T04:16:48;100197.84;;;13.14;100.00
33404;BME280;19751;40.274;18.268;2024-02-26T04:19:16;100204.97;;;13.09;100.00
33404;BME280;19751;40.274;18.268;2024-02-26T04:21:43;100214.13;;;13.08;100.00
33404;BME280;19751;40.274;18.268;2024-02-26T04:24:09;100215.63;;;13.04;100.00
33404;BME280;19751;40.274;18.268;2024-02-26T04:26:34;100223.50;;;13.05;100.00
33404;BME280;19751;40.274;18.268;2024-02-26T04:29:00;100219.38;;;13.03;100.00
33404;BME280;19751;40.274;18.268;2024-02-26T04:31:26;100215.00;;;13.02;100.00
33404;BME280;19751;40.274;18.268;2024-02-26T04:33:52;100222.91;;;13.03;100.00
33404;BME280;19751;40.274;18.268;2024-02-26T04:36:17;100217.34;;;12.98;100.00
33404;BME280;19751;40.274;18.268;2024-02-26T04:38:46;100221.28;;;12.96;100.00
33404;BME280;19751;40.274;18.268;2024-02-26T04:41:11;100222.34;;;12.94;100.00
33404;BME280;19751;40.274;18.268;2024-02-26T04:43:38;100225.44;;;12.98;100.00
33404;BME280;19751;40.274;18.268;2024-02-26T04:46:09;100221.69;;;12.99;100.00
33404;BME280;19751;40.274;18.268;2024-02-26T04:48:35;100223.09;;;13.02;100.00
33404;BME280;19751;40.274;18.268;2024-02-26T04:51:01;100219.78;;;13.06;100.00
33404;BME280;19751;40.274;18.268;2024-02-26T04:53:27;100214.13;;;13.08;100.00
33404;BME280;19751;40.274;18.268;2024-02-26T04:55:52;100211.19;;;13.09;100.00
33404;BME280;19751;40.274;18.268;2024-02-26T04:58:18;100217.66;;;13.08;100.00
33404;BME280;19751;40.274;18.268;2024-02-26T05:00:43;100219.53;;;13.08;100.00
33404;BME280;19751;40.274;18.268;2024-02-26T05:03:09;100228.91;;;13.05;100.00
33404;BME280;19751;40.274;18.268;2024-02-26T05:05:38;100220.13;;;13.10;100.00
33404;BME280;19751;40.274;18.268;2024-02-26T05:08:05;100219.72;;;13.13;100.00
33404;BME280;19751;40.274;18.268;2024-02-26T05:10:30;100221.97;;;13.16;100.00
33404;BME280;19751;40.274;18.268;2024-02-26T05:12:56;100224.69;;;13.16;100.00
33404;BME280;19751;40.274;18.268;2024-02-26T05:15:21;100219.47;;;13.14;100.00
33404;BME280;19751;40.274;18.268;2024-02-26T05:17:46;100229.47;;;13.14;100.00
33404;BME280;19751;40.274;18.268;2024-02-26T05:20:12;100224.06;;;13.14;100.00
33404;BME280;19751;40.274;18.268;2024-02-26T05:22:38;100215.13;;;13.13;100.00
33404;BME280;19751;40.274;18.268;2024-02-26T05:25:03;100215.94;;;13.14;100.00
33404;BME280;19751;40.274;18.268;2024-02-26T05:27:29;100224.28;;;13.12;100.00
33404;BME280;19751;40.274;18.268;2024-02-26T05:29:55;100228.88;;;13.12;100.00
33404;BME280;19751;40.274;18.268;2024-02-26T05:32:20;100228.25;;;13.10;100.00
33404;BME280;19751;40.274;18.268;2024-02-26T05:34:45;100224.94;;;13.08;100.00
33404;BME280;19751;40.274;18.268;2024-02-26T05:37:11;100225.78;;;13.08;100.00
33404;BME280;19751;40.274;18.268;2024-02-26T05:39:37;100223.50;;;13.05;100.00
33404;BME280;19751;40.274;18.268;2024-02-26T05:42:02;100229.72;;;13.06;100.00
33404;BME280;19751;40.274;18.268;2024-02-26T05:44:28;100230.34;;;13.08;100.00
33404;BME280;19751;40.274;18.268;2024-02-26T05:46:54;100229.31;;;13.09;100.00
33404;BME280;19751;40.274;18.268;2024-02-26T05:49:19;100234.13;;;13.07;100.00
33404;BME280;19751;40.274;18.268;2024-02-26T05:51:45;100239.53;;;13.07;100.00
33404;BME280;19751;40.274;18.268;2024-02-26T05:54:10;100242.66;;;13.04;100.00
33404;BME280;19751;40.274;18.268;2024-02-26T05:56:36;100248.47;;;13.07;100.00
33404;BME280;19751;40.274;18.268;2024-02-26T05:59:02;100250.94;;;13.09;100.00
33404;BME280;19751;40.274;18.268;2024-02-26T06:01:27;100255.53;;;13.08;100.00
33404;BME280;19751;40.274;18.268;2024-02-26T06:03:53;100252.38;;;13.11;100.00
33404;BME280;19751;40.274;18.268;2024-02-26T06:06:19;100256.50;;;13.14;100.00
33404;BME280;19751;40.274;18.268;2024-02-26T06:08:44;100251.94;;;13.14;100.00
33404;BME280;19751;40.274;18.268;2024-02-26T06:11:10;100253.81;;;13.14;100.00
33404;BME280;19751;40.274;18.268;2024-02-26T06:13:35;100259.03;;;13.15;100.00
33404;BME280;19751;40.274;18.268;2024-02-26T06:16:01;100262.31;;;13.17;100.00
33404;BME280;19751;40.274;18.268;2024-02-26T06:18:27;100262.72;;;13.21;100.00
33404;BME280;19751;40.274;18.268;2024-02-26T06:20:52;100257.97;;;13.23;100.00
33404;BME280;19751;40.274;18.268;2024-02-26T06:23:18;100258.13;;;13.22;100.00
33404;BME280;19751;40.274;18.268;2024-02-26T06:25:44;100258.56;;;13.25;100.00
33404;BME280;19751;40.274;18.268;2024-02-26T06:28:09;100263.53;;;13.22;100.00
33404;BME280;19751;40.274;18.268;2024-02-26T06:30:34;100264.38;;;13.22;100.00
33404;BME280;19751;40.274;18.268;2024-02-26T06:33:01;100266.47;;;13.20;100.00
33404;BME280;19751;40.274;18.268;2024-02-26T06:35:27;100269.00;;;13.15;100.00
33404;BME280;19751;40.274;18.268;2024-02-26T06:37:53;100266.91;;;13.17;100.00
33404;BME280;19751;40.274;18.268;2024-02-26T06:40:19;100268.94;;;13.22;100.00
33404;BME280;19751;40.274;18.268;2024-02-26T06:42:45;100268.13;;;13.21;100.00
33404;BME280;19751;40.274;18.268;2024-02-26T06:45:10;100269.38;;;13.25;100.00
33404;BME280;19751;40.274;18.268;2024-02-26T06:47:36;100274.94;;;13.30;100.00
33404;BME280;19751;40.274;18.268;2024-02-26T06:50:01;100270.75;;;13.34;100.00
33404;BME280;19751;40.274;18.268;2024-02-26T06:52:27;100279.28;;;13.38;100.00
33404;BME280;19751;40.274;18.268;2024-02-26T06:54:53;100281.31;;;13.42;100.00
33404;BME280;19751;40.274;18.268;2024-02-26T06:57:21;100280.88;;;13.46;100.00
33404;BME280;19751;40.274;18.268;2024-02-26T06:59:47;100290.22;;;13.50;100.00
33404;BME280;19751;40.274;18.268;2024-02-26T07:02:14;100298.72;;;13.53;100.00
33404;BME280;19751;40.274;18.268;2024-02-26T07:04:39;100295.78;;;13.55;100.00
33404;BME280;19751;40.274;18.268;2024-02-26T07:07:06;100294.31;;;13.59;100.00
33404;BME280;19751;40.274;18.268;2024-02-26T07:09:32;100287.47;;;13.56;100.00
33404;BME280;19751;40.274;18.268;2024-02-26T07:11:57;100297.44;;;13.56;100.00
33404;BME280;19751;40.274;18.268;2024-02-26T07:14:23;100301.22;;;13.55;100.00
33404;BME280;19751;40.274;18.268;2024-02-26T07:16:49;100311.59;;;13.58;100.00
33404;BME280;19751;40.274;18.268;2024-02-26T07:19:15;100309.94;;;13.57;100.00
33404;BME280;19751;40.274;18.268;2024-02-26T07:21:40;100313.66;;;13.62;100.00
33404;BME280;19751;40.274;18.268;2024-02-26T07:24:06;100313.81;;;13.67;100.00
33404;BME280;19751;40.274;18.268;2024-02-26T07:26:32;100312.97;;;13.67;100.00
33404;BME280;19751;40.274;18.268;2024-02-26T07:28:57;100310.06;;;13.68;100.00
33404;BME280;19751;40.274;18.268;2024-02-26T07:31:23;100318.94;;;13.76;100.00
33404;BME280;19751;40.274;18.268;2024-02-26T07:33:49;100313.50;;;13.82;100.00
33404;BME280;19751;40.274;18.268;2024-02-26T07:36:14;100315.53;;;13.87;100.00
33404;BME280;19751;40.274;18.268;2024-02-26T07:38:40;100320.06;;;13.93;100.00
33404;BME280;19751;40.274;18.268;2024-02-26T07:41:05;100323.63;;;13.93;100.00
33404;BME280;19751;40.274;18.268;2024-02-26T07:43:31;100318.56;;;13.97;100.00
33404;BME280;19751;40.274;18.268;2024-02-26T07:45:57;100329.34;;;14.04;100.00
33404;BME280;19751;40.274;18.268;2024-02-26T07:48:23;100335.81;;;14.03;100.00
33404;BME280;19751;40.274;18.268;2024-02-26T07:50:48;100328.28;;;14.05;100.00
33404;BME280;19751;40.274;18.268;2024-02-26T07:53:14;100338.69;;;14.08;100.00
33404;BME280;19751;40.274;18.268;2024-02-26T07:55:39;100340.34;;;14.09;100.00
33404;BME280;19751;40.274;18.268;2024-02-26T07:58:05;100342.22;;;14.08;100.00
33404;BME280;19751;40.274;18.268;2024-02-26T08:00:30;100343.19;;;14.14;100.00
33404;BME280;19751;40.274;18.268;2024-02-26T08:02:56;100346.91;;;14.20;100.00
33404;BME280;19751;40.274;18.268;2024-02-26T08:05:21;100343.28;;;14.26;100.00
33404;BME280;19751;40.274;18.268;2024-02-26T08:07:47;100346.38;;;14.29;100.00
33404;BME280;19751;40.274;18.268;2024-02-26T08:10:12;100344.50;;;14.30;100.00
33404;BME280;19751;40.274;18.268;2024-02-26T08:12:38;100349.72;;;14.31;100.00
33404;BME280;19751;40.274;18.268;2024-02-26T08:15:04;100349.72;;;14.31;100.00
33404;BME280;19751;40.274;18.268;2024-02-26T08:17:30;100353.66;;;14.35;100.00
33404;BME280;19751;40.274;18.268;2024-02-26T08:19:55;100344.59;;;14.41;100.00
33404;BME280;19751;40.274;18.268;2024-02-26T08:22:22;100345.81;;;14.46;100.00
33404;BME280;19751;40.274;18.268;2024-02-26T08:24:47;100337.91;;;14.44;100.00
33404;BME280;19751;40.274;18.268;2024-02-26T08:27:13;100340.81;;;14.49;100.00
33404;BME280;19751;40.274;18.268;2024-02-26T08:29:38;100345.56;;;14.54;100.00
33404;BME280;19751;40.274;18.268;2024-02-26T08:32:04;100338.47;;;14.53;100.00
33404;BME280;19751;40.274;18.268;2024-02-26T08:34:31;100338.03;;;14.56;100.00
33404;BME280;19751;40.274;18.268;2024-02-26T08:36:56;100338.19;;;14.61;100.00
33404;BME280;19751;40.274;18.268;2024-02-26T08:39:21;100335.84;;;14.64;100.00
33404;BME280;19751;40.274;18.268;2024-02-26T08:41:47;100330.44;;;14.64;100.00
33404;BME280;19751;40.274;18.268;2024-02-26T08:44:12;100333.97;;;14.65;100.00
33404;BME280;19751;40.274;18.268;2024-02-26T08:46:38;100331.63;;;14.69;100.00
33404;BME280;19751;40.274;18.268;2024-02-26T08:49:04;100340.13;;;14.72;100.00
33404;BME280;19751;40.274;18.268;2024-02-26T08:51:29;100344.13;;;14.70;100.00
33404;BME280;19751;40.274;18.268;2024-02-26T08:53:55;100339.38;;;14.65;100.00
33404;BME280;19751;40.274;18.268;2024-02-26T08:56:21;100342.09;;;14.65;100.00
33404;BME280;19751;40.274;18.268;2024-02-26T08:58:47;100343.31;;;14.69;100.00
33404;BME280;19751;40.274;18.268;2024-02-26T09:01:14;100349.31;;;14.71;100.00
33404;BME280;19751;40.274;18.268;2024-02-26T09:03:40;100339.28;;;14.72;100.00
33404;BME280;19751;40.274;18.268;2024-02-26T09:06:06;100349.94;;;14.73;100.00
33404;BME280;19751;40.274;18.268;2024-02-26T09:08:32;100351.81;;;14.73;100.00
33404;BME280;19751;40.274;18.268;2024-02-26T09:10:58;100358.88;;;14.74;100.00
33404;BME280;19751;40.274;18.268;2024-02-26T09:13:23;100345.72;;;14.77;100.00
33404;BME280;19751;40.274;18.268;2024-02-26T09:15:49;100355.25;;;14.80;100.00
33404;BME280;19751;40.274;18.268;2024-02-26T09:18:15;100359.41;;;14.82;100.00
33404;BME280;19751;40.274;18.268;2024-02-26T09:20:41;100353.53;;;14.85;100.00
33404;BME280;19751;40.274;18.268;2024-02-26T09:23:06;100364.59;;;14.84;100.00
33404;BME280;19751;40.274;18.268;2024-02-26T09:25:32;100360.22;;;14.83;100.00
33404;BME280;19751;40.274;18.268;2024-02-26T09:27:59;100353.53;;;14.85;100.00
33404;BME280;19751;40.274;18.268;2024-02-26T09:30:24;100350.34;;;14.88;100.00
33404;BME280;19751;40.274;18.268;2024-02-26T09:32:50;100363.03;;;14.95;100.00
33404;BME280;19751;40.274;18.268;2024-02-26T09:35:16;100356.16;;;14.92;100.00
33404;BME280;19751;40.274;18.268;2024-02-26T09:37:41;100359.09;;;14.90;100.00
33404;BME280;19751;40.274;18.268;2024-02-26T09:40:09;100363.78;;;14.83;100.00
33404;BME280;19751;40.274;18.268;2024-02-26T09:42:43;100348.56;;;14.82;100.00
33404;BME280;19751;40.274;18.268;2024-02-26T09:45:11;100337.03;;;14.87;100.00
33404;BME280;19751;40.274;18.268;2024-02-26T09:47:38;100330.94;;;14.91;100.00
33404;BME280;19751;40.274;18.268;2024-02-26T09:50:06;100332.38;;;14.94;100.00
33404;BME280;19751;40.274;18.268;2024-02-26T09:52:34;100339.38;;;15.02;100.00
33404;BME280;19751;40.274;18.268;2024-02-26T09:55:03;100338.53;;;15.01;100.00
33404;BME280;19751;40.274;18.268;2024-02-26T09:57:29;100350.44;;;15.00;100.00
33404;BME280;19751;40.274;18.268;2024-02-26T09:59:58;100344.63;;;14.97;100.00
33404;BME280;19751;40.274;18.268;2024-02-26T10:02:25;100357.16;;;14.98;100.00
33404;BME280;19751;40.274;18.268;2024-02-26T10:04:51;100351.88;;;15.03;100.00
33404;BME280;19751;40.274;18.268;2024-02-26T10:07:19;100350.34;;;15.07;100.00
33404;BME280;19751;40.274;18.268;2024-02-26T10:09:45;100358.25;;;15.08;100.00
33404;BME280;19751;40.274;18.268;2024-02-26T10:12:11;100360.75;;;15.10;100.00
33404;BME280;19751;40.274;18.268;2024-02-26T10:14:37;100360.13;;;15.08;100.00
33404;BME280;19751;40.274;18.268;2024-02-26T10:17:06;100360.75;;;15.10;100.00
33404;BME280;19751;40.274;18.268;2024-02-26T10:19:33;100368.41;;;15.13;100.00
33404;BME280;19751;40.274;18.268;2024-02-26T10:22:02;100357.34;;;15.14;100.00
33404;BME280;19751;40.274;18.268;2024-02-26T10:24:30;100358.06;;;15.22;100.00
33404;BME280;19751;40.274;18.268;2024-02-26T10:26:56;100353.63;;;15.27;100.00
33404;BME280;19751;40.274;18.268;2024-02-26T10:29:25;100357.75;;;15.30;100.00
33404;BME280;19751;40.274;18.268;2024-02-26T10:31:51;100356.94;;;15.29;100.00
33404;BME280;19751;40.274;18.268;2024-02-26T10:34:18;100346.91;;;15.30;100.00
33404;BME280;19751;40.274;18.268;2024-02-26T10:36:44;100349.28;;;15.26;100.00
33404;BME280;19751;40.274;18.268;2024-02-26T10:39:11;100345.56;;;15.21;100.00
33404;BME280;19751;40.274;18.268;2024-02-26T10:41:37;100345.00;;;15.19;100.00
33404;BME280;19751;40.274;18.268;2024-02-26T10:44:03;100340.38;;;15.19;100.00
33404;BME280;19751;40.274;18.268;2024-02-26T10:46:29;100332.81;;;15.21;100.00
33404;BME280;19751;40.274;18.268;2024-02-26T10:48:55;100323.78;;;15.27;100.00
33404;BME280;19751;40.274;18.268;2024-02-26T10:51:28;100336.28;;;15.28;100.00
33404;BME280;19751;40.274;18.268;2024-02-26T10:53:58;100340.88;;;15.28;100.00
33404;BME280;19751;40.274;18.268;2024-02-26T10:56:27;100328.16;;;15.28;100.00
33404;BME280;19751;40.274;18.268;2024-02-26T10:58:55;100328.16;;;15.28;100.00
33404;BME280;19751;40.274;18.268;2024-02-26T11:01:23;100323.09;;;15.32;100.00
33404;BME280;19751;40.274;18.268;2024-02-26T11:03:51;100327.56;;;15.38;100.00
33404;BME280;19751;40.274;18.268;2024-02-26T11:06:21;100317.09;;;15.41;100.00
33404;BME280;19751;40.274;18.268;2024-02-26T11:08:50;100315.22;;;15.42;100.00
33404;BME280;19751;40.274;18.268;2024-02-26T11:11:17;100332.31;;;15.42;100.00
33404;BME280;19751;40.274;18.268;2024-02-26T11:13:48;100322.31;;;15.43;100.00
33404;BME280;19751;40.274;18.268;2024-02-26T11:16:20;100314.38;;;15.41;100.00
33404;BME280;19751;40.274;18.268;2024-02-26T11:18:48;100319.94;;;15.47;100.00
33404;BME280;19751;40.274;18.268;2024-02-26T11:21:17;100314.88;;;15.50;100.00
33404;BME280;19751;40.274;18.268;2024-02-26T11:23:45;100311.13;;;15.51;100.00
33404;BME280;19751;40.274;18.268;2024-02-26T11:26:13;100312.41;;;15.49;100.00
33404;BME280;19751;40.274;18.268;2024-02-26T11:28:40;100310.16;;;15.46;100.00
33404;BME280;19751;40.274;18.268;2024-02-26T11:31:05;100313.94;;;15.45;100.00
33404;BME280;19751;40.274;18.268;2024-02-26T11:33:33;100300.59;;;15.43;100.00
33404;BME280;19751;40.274;18.268;2024-02-26T11:36:02;100310.59;;;15.42;100.00
33404;BME280;19751;40.274;18.268;2024-02-26T11:38:28;100311.66;;;15.41;100.00
33404;BME280;19751;40.274;18.268;2024-02-26T11:40:54;100314.75;;;15.45;100.00
33404;BME280;19751;40.274;18.268;2024-02-26T11:43:33;100311.22;;;15.45;100.00
33404;BME280;19751;40.274;18.268;2024-02-26T11:46:28;100302.00;;;15.46;100.00
33404;BME280;19751;40.274;18.268;2024-02-26T11:48:59;100301.53;;;15.49;100.00
33404;BME280;19751;40.274;18.268;2024-02-26T11:51:27;100295.06;;;15.50;100.00
33404;BME280;19751;40.274;18.268;2024-02-26T11:53:54;100293.16;;;15.50;100.00
33404;BME280;19751;40.274;18.268;2024-02-26T11:56:20;100294.59;;;15.53;100.00
33404;BME280;19751;40.274;18.268;2024-02-26T11:59:10;100292.00;;;15.58;100.00
33404;BME280;19751;40.274;18.268;2024-02-26T12:01:47;100320.78;;;15.59;100.00
33404;BME280;19751;40.274;18.268;2024-02-26T12:04:24;100311.69;;;15.53;100.00
33404;BME280;19751;40.274;18.268;2024-02-26T12:07:00;100309.34;;;15.57;100.00
33404;BME280;19751;40.274;18.268;2024-02-26T12:09:32;100313.97;;;15.56;100.00
33404;BME280;19751;40.274;18.268;2024-02-26T12:11:58;100327.28;;;15.58;100.00
33404;BME280;19751;40.274;18.268;2024-02-26T12:14:26;100311.81;;;15.58;100.00
33404;BME280;19751;40.274;18.268;2024-02-26T12:16:52;100308.75;;;15.55;100.00
33404;BME280;19751;40.274;18.268;2024-02-26T12:19:18;100321.66;;;15.59;100.00
33404;BME280;19751;40.274;18.268;2024-02-26T12:21:44;100318.69;;;15.61;100.00
33404;BME280;19751;40.274;18.268;2024-02-26T12:24:14;100315.16;;;15.60;100.00
33404;BME280;19751;40.274;18.268;2024-02-26T12:26:41;100305.94;;;15.61;100.00